createdAt,value
2023-04-13T00:00:48.658Z,19
2023-04-13T00:01:55.883Z,18
2023-04-13T00:03:02.874Z,18
2023-04-13T00:04:09.724Z,19
2023-04-13T00:05:16.557Z,18
2023-04-13T00:06:23.350Z,18
2023-04-13T00:07:30.224Z,20
2023-04-13T00:08:37.143Z,20
2023-04-13T00:09:43.990Z,19
2023-04-13T00:10:50.782Z,18
2023-04-13T00:11:57.684Z,19
2023-04-13T00:13:04.544Z,19
2023-04-13T00:14:11.426Z,19
2023-04-13T00:15:18.285Z,20
2023-04-13T00:16:25.207Z,19
2023-04-13T00:17:32.122Z,20
2023-04-13T00:18:39.789Z,21
2023-04-13T00:19:46.730Z,20
2023-04-13T00:20:53.554Z,21
2023-04-13T00:22:00.521Z,21
2023-04-13T00:23:07.355Z,21
2023-04-13T00:24:14.209Z,20
2023-04-13T00:25:21.130Z,21
2023-04-13T00:26:28.054Z,20
2023-04-13T00:27:34.975Z,21
2023-04-13T00:28:44.761Z,21
2023-04-13T00:29:51.658Z,20
2023-04-13T00:30:58.611Z,21
2023-04-13T00:32:05.639Z,21
2023-04-13T00:33:13.082Z,21
2023-04-13T00:34:20.013Z,22
2023-04-13T00:35:27.242Z,21
2023-04-13T00:36:37.420Z,21
2023-04-13T00:37:44.495Z,22
2023-04-13T00:38:51.853Z,21
2023-04-13T00:39:59.008Z,21
2023-04-13T00:41:06.267Z,21
2023-04-13T00:42:13.531Z,22
2023-04-13T00:43:22.265Z,22
2023-04-13T00:44:29.467Z,23
2023-04-13T00:45:37.692Z,23
2023-04-13T00:46:45.540Z,23
2023-04-13T00:47:52.833Z,22
2023-04-13T00:48:59.680Z,23
2023-04-13T00:50:06.915Z,24
2023-04-13T00:51:13.960Z,24
2023-04-13T00:52:21.027Z,24
2023-04-13T00:53:29.331Z,22
2023-04-13T00:54:36.441Z,23
2023-04-13T00:55:43.636Z,24
2023-04-13T00:56:51.426Z,24
2023-04-13T00:57:58.851Z,24
2023-04-13T00:59:06.257Z,24
2023-04-13T01:00:16.193Z,24
2023-04-13T01:01:23.915Z,23
2023-04-13T01:02:31.503Z,25
2023-04-13T01:03:38.748Z,25
2023-04-13T01:04:45.714Z,24
2023-04-13T01:05:52.877Z,24
2023-04-13T01:07:10.076Z,25
2023-04-13T01:08:26.466Z,24
2023-04-13T01:09:33.949Z,25
2023-04-13T01:10:48.843Z,24
2023-04-13T01:11:58.949Z,25
2023-04-13T01:13:06.547Z,25
2023-04-13T01:14:14.040Z,24
2023-04-13T01:15:26.339Z,25
2023-04-13T01:16:33.438Z,24
2023-04-13T01:17:43.606Z,25
2023-04-13T01:18:50.946Z,26
2023-04-13T01:19:57.950Z,24
2023-04-13T01:21:10.495Z,26
2023-04-13T01:22:18.166Z,24
2023-04-13T01:23:25.330Z,26
2023-04-13T01:24:40.457Z,25
2023-04-13T01:25:53.396Z,25
2023-04-13T01:27:03.087Z,25
2023-04-13T01:28:10.205Z,24
2023-04-13T01:29:19.753Z,26
2023-04-13T01:30:26.766Z,25
2023-04-13T01:31:34.864Z,27
2023-04-13T01:32:42.097Z,24
2023-04-13T01:33:49.415Z,26
2023-04-13T01:34:56.615Z,25
2023-04-13T01:36:03.646Z,26
2023-04-13T01:37:12.021Z,24
2023-04-13T01:38:18.951Z,24
2023-04-13T01:39:25.881Z,23
2023-04-13T01:40:32.865Z,24
2023-04-13T01:41:42.685Z,23
2023-04-13T01:42:49.766Z,24
2023-04-13T01:43:57.102Z,24
2023-04-13T01:45:03.829Z,23
2023-04-13T01:46:16.990Z,24
2023-04-13T01:47:23.972Z,23
2023-04-13T01:48:31.099Z,24
2023-04-13T01:49:37.931Z,24
2023-04-13T01:50:44.991Z,24
2023-04-13T01:51:52.271Z,25
2023-04-13T01:52:59.128Z,25
2023-04-13T01:54:14.516Z,24
2023-04-13T01:55:21.716Z,24
2023-04-13T01:56:28.583Z,26
2023-04-13T01:57:35.525Z,26
2023-04-13T01:58:42.371Z,26
2023-04-13T01:59:49.259Z,26
2023-04-13T02:00:56.406Z,27
2023-04-13T02:02:03.302Z,28
2023-04-13T02:03:10.318Z,27
2023-04-13T02:04:17.403Z,26
2023-04-13T02:05:24.243Z,27
2023-04-13T02:06:32.025Z,27
2023-04-13T02:07:38.859Z,27
2023-04-13T02:08:45.941Z,26
2023-04-13T02:09:52.759Z,27
2023-04-13T02:10:59.585Z,28
2023-04-13T02:12:06.542Z,26
2023-04-13T02:13:13.633Z,27
2023-04-13T02:14:20.653Z,29
2023-04-13T02:15:27.562Z,28
2023-04-13T02:16:34.478Z,26
2023-04-13T02:17:41.346Z,27
2023-04-13T02:18:48.349Z,27
2023-04-13T02:19:56.200Z,27
2023-04-13T02:21:03.127Z,26
2023-04-13T02:22:13.059Z,28
2023-04-13T02:23:19.865Z,28
2023-04-13T02:24:26.690Z,27
2023-04-13T02:25:33.834Z,26
2023-04-13T02:26:40.891Z,28
2023-04-13T02:27:47.726Z,26
2023-04-13T02:28:54.762Z,26
2023-04-13T02:30:03.556Z,26
2023-04-13T02:31:10.919Z,25
2023-04-13T02:32:17.726Z,24
2023-04-13T02:33:24.601Z,26
2023-04-13T02:34:31.451Z,26
2023-04-13T02:35:38.366Z,25
2023-04-13T02:36:45.146Z,26
2023-04-13T02:37:51.945Z,25
2023-04-13T02:38:58.848Z,25
2023-04-13T02:40:05.687Z,26
2023-04-13T02:41:12.691Z,24
2023-04-13T02:42:19.467Z,25
2023-04-13T02:43:26.298Z,25
2023-04-13T02:44:33.253Z,25
2023-04-13T02:45:42.613Z,24
2023-04-13T02:46:49.414Z,23
2023-04-13T02:47:56.236Z,24
2023-04-13T02:49:02.997Z,24
2023-04-13T02:50:09.834Z,25
2023-04-13T02:51:16.762Z,23
2023-04-13T02:52:23.609Z,24
2023-04-13T02:53:30.462Z,23
2023-04-13T02:54:37.272Z,23
2023-04-13T02:55:44.129Z,23
2023-04-13T02:56:51.062Z,24
2023-04-13T02:57:57.938Z,23
2023-04-13T02:59:04.812Z,22
2023-04-13T03:00:11.654Z,23
2023-04-13T03:01:18.629Z,23
2023-04-13T03:02:25.674Z,23
2023-04-13T03:03:32.474Z,22
2023-04-13T03:04:39.498Z,22
2023-04-13T03:05:46.294Z,22
2023-04-13T03:06:56.254Z,22
2023-04-13T03:08:03.167Z,24
2023-04-13T03:09:10.255Z,22
2023-04-13T03:10:17.251Z,23
2023-04-13T03:11:24.415Z,23
2023-04-13T03:12:31.277Z,22
2023-04-13T03:13:38.138Z,24
2023-04-13T03:14:46.032Z,23
2023-04-13T03:15:53.012Z,23
2023-04-13T03:16:59.863Z,24
2023-04-13T03:18:06.821Z,23
2023-04-13T03:19:13.687Z,23
2023-04-13T03:20:21.352Z,23
2023-04-13T03:21:28.347Z,22
2023-04-13T03:22:35.380Z,23
2023-04-13T03:23:42.272Z,22
2023-04-13T03:24:49.125Z,23
2023-04-13T03:25:55.973Z,22
2023-04-13T03:27:02.830Z,22
2023-04-13T03:28:09.818Z,22
2023-04-13T03:29:16.689Z,22
2023-04-13T03:30:23.591Z,22
2023-04-13T03:31:30.453Z,22
2023-04-13T03:32:37.204Z,22
2023-04-13T03:33:44.202Z,23
2023-04-13T03:34:51.027Z,22
2023-04-13T03:35:57.797Z,22
2023-04-13T03:37:04.611Z,22
2023-04-13T03:38:11.542Z,22
2023-04-13T03:39:18.425Z,23
2023-04-13T03:40:25.348Z,23
2023-04-13T03:41:32.122Z,23
2023-04-13T03:42:38.906Z,23
2023-04-13T03:43:45.754Z,23
2023-04-13T03:44:52.599Z,22
2023-04-13T03:45:59.457Z,22
2023-04-13T03:47:06.366Z,22
2023-04-13T03:48:13.232Z,21
2023-04-13T03:49:20.032Z,22
2023-04-13T03:50:27.002Z,22
2023-04-13T03:51:33.827Z,23
2023-04-13T03:52:40.870Z,22
2023-04-13T03:53:47.668Z,22
2023-04-13T03:54:54.659Z,23
2023-04-13T03:56:01.494Z,24
2023-04-13T03:57:08.586Z,23
2023-04-13T03:58:15.554Z,23
2023-04-13T03:59:22.385Z,23
2023-04-13T04:00:29.260Z,22
2023-04-13T04:01:39.214Z,22
2023-04-13T04:02:48.979Z,22
2023-04-13T04:03:55.937Z,23
2023-04-13T04:05:02.653Z,23
2023-04-13T04:06:09.719Z,21
2023-04-13T04:07:16.600Z,22
2023-04-13T04:08:23.393Z,21
2023-04-13T04:09:30.274Z,22
2023-04-13T04:10:37.288Z,23
2023-04-13T04:11:44.136Z,22
2023-04-13T04:12:51.044Z,20
2023-04-13T04:13:58.000Z,21
2023-04-13T04:15:04.678Z,22
2023-04-13T04:16:11.870Z,21
2023-04-13T04:17:18.644Z,22
2023-04-13T04:18:25.557Z,21
2023-04-13T04:19:32.372Z,22
2023-04-13T04:20:39.226Z,21
2023-04-13T04:21:46.192Z,22
2023-04-13T04:22:53.072Z,22
2023-04-13T04:24:00.223Z,20
2023-04-13T04:25:06.880Z,22
2023-04-13T04:26:13.680Z,22
2023-04-13T04:27:20.730Z,21
2023-04-13T04:28:27.540Z,23
2023-04-13T04:29:34.634Z,21
2023-04-13T04:30:41.318Z,21
2023-04-13T04:31:48.260Z,22
2023-04-13T04:32:55.116Z,22
2023-04-13T04:34:02.066Z,21
2023-04-13T04:35:08.856Z,22
2023-04-13T04:36:15.748Z,21
2023-04-13T04:37:22.575Z,21
2023-04-13T04:38:29.391Z,21
2023-04-13T04:39:36.254Z,21
2023-04-13T04:40:43.156Z,21
2023-04-13T04:41:50.019Z,22
2023-04-13T04:42:59.835Z,22
2023-04-13T04:44:06.704Z,22
2023-04-13T04:45:13.631Z,24
2023-04-13T04:46:20.629Z,24
2023-04-13T04:47:27.474Z,25
2023-04-13T04:48:34.369Z,25
2023-04-13T04:49:41.231Z,24
2023-04-13T04:50:48.083Z,25
2023-04-13T04:51:54.988Z,25
2023-04-13T04:53:01.912Z,25
2023-04-13T04:54:08.645Z,23
2023-04-13T04:55:15.509Z,27
2023-04-13T04:56:22.301Z,26
2023-04-13T04:57:29.691Z,26
2023-04-13T04:58:36.158Z,25
2023-04-13T04:59:43.043Z,25
2023-04-13T05:00:49.943Z,24
2023-04-13T05:01:56.704Z,25
2023-04-13T05:03:03.578Z,23
2023-04-13T05:04:10.354Z,23
2023-04-13T05:05:17.336Z,23
2023-04-13T05:06:24.021Z,22
2023-04-13T05:07:30.816Z,23
2023-04-13T05:08:37.747Z,23
2023-04-13T05:09:44.633Z,23
2023-04-13T05:10:51.460Z,24
2023-04-13T05:11:58.255Z,24
2023-04-13T05:13:05.130Z,25
2023-04-13T05:14:12.080Z,24
2023-04-13T05:15:19.918Z,25
2023-04-13T05:16:26.868Z,25
2023-04-13T05:17:33.695Z,25
2023-04-13T05:18:40.476Z,25
2023-04-13T05:19:47.341Z,24
2023-04-13T05:20:54.352Z,24
2023-04-13T05:22:01.118Z,24
2023-04-13T05:23:07.924Z,24
2023-04-13T05:24:14.701Z,22
2023-04-13T05:25:21.558Z,22
2023-04-13T05:26:28.358Z,23
2023-04-13T05:27:35.332Z,23
2023-04-13T05:28:42.160Z,22
2023-04-13T05:29:48.966Z,22
2023-04-13T05:30:55.776Z,24
2023-04-13T05:32:07.983Z,22
2023-04-13T05:33:14.631Z,23
2023-04-13T05:34:21.403Z,23
2023-04-13T05:35:28.309Z,23
2023-04-13T05:36:35.210Z,24
2023-04-13T05:37:41.960Z,23
2023-04-13T05:38:48.912Z,24
2023-04-13T05:39:55.709Z,23
2023-04-13T05:41:02.602Z,25
2023-04-13T05:42:09.510Z,24
2023-04-13T05:43:16.305Z,25
2023-04-13T05:44:23.259Z,26
2023-04-13T05:45:30.178Z,25
2023-04-13T05:46:36.991Z,25
2023-04-13T05:47:43.831Z,25
2023-04-13T05:48:50.614Z,25
2023-04-13T05:49:57.527Z,25
2023-04-13T05:51:04.500Z,26
2023-04-13T05:52:11.321Z,26
2023-04-13T05:53:18.156Z,25
2023-04-13T05:54:24.983Z,25
2023-04-13T05:55:31.871Z,27
2023-04-13T05:56:38.745Z,27
2023-04-13T05:57:45.537Z,26
2023-04-13T05:58:52.371Z,26
2023-04-13T05:59:59.176Z,27
2023-04-13T06:01:06.184Z,27
2023-04-13T06:02:13.136Z,27
2023-04-13T06:03:20.159Z,26
2023-04-13T06:04:26.828Z,24
2023-04-13T06:05:33.536Z,25
2023-04-13T06:06:40.395Z,25
2023-04-13T06:07:47.395Z,26
2023-04-13T06:08:54.282Z,24
2023-04-13T06:10:01.163Z,25
2023-04-13T06:11:08.209Z,24
2023-04-13T06:12:15.063Z,25
2023-04-13T06:13:21.895Z,25
2023-04-13T06:14:28.695Z,24
2023-04-13T06:15:35.496Z,24
2023-04-13T06:16:42.528Z,23
2023-04-13T06:17:49.551Z,23
2023-04-13T06:18:56.325Z,23
2023-04-13T06:20:03.125Z,24
2023-04-13T06:21:10.310Z,22
2023-04-13T06:22:17.130Z,22
2023-04-13T06:23:24.095Z,23
2023-04-13T06:24:30.849Z,23
2023-04-13T06:25:37.573Z,24
2023-04-13T06:26:44.452Z,24
2023-04-13T06:27:51.302Z,23
2023-04-13T06:28:58.360Z,20
2023-04-13T06:30:04.964Z,18
2023-04-13T06:31:13.484Z,18
2023-04-13T06:32:18.858Z,18
2023-04-13T06:33:25.641Z,16
2023-04-13T06:34:32.563Z,16
2023-04-13T06:35:39.449Z,17
2023-04-13T06:36:46.268Z,17
2023-04-13T06:37:54.088Z,15
2023-04-13T06:39:03.762Z,15
2023-04-13T06:40:10.568Z,16
2023-04-13T06:41:17.487Z,17
2023-04-13T06:42:24.337Z,17
2023-04-13T06:43:31.124Z,16
2023-04-13T06:44:38.017Z,16
2023-04-13T06:45:44.939Z,17
2023-04-13T06:46:51.837Z,16
2023-04-13T06:47:58.837Z,15
2023-04-13T06:49:05.668Z,15
2023-04-13T06:50:12.466Z,17
2023-04-13T06:51:19.327Z,16
2023-04-13T06:52:26.225Z,16
2023-04-13T06:53:33.355Z,16
2023-04-13T06:54:40.331Z,14
2023-04-13T06:55:47.484Z,15
2023-04-13T06:56:54.353Z,16
2023-04-13T06:58:01.449Z,15
2023-04-13T06:59:08.557Z,16
2023-04-13T07:00:28.697Z,16
2023-04-13T07:01:22.253Z,14
2023-04-13T07:02:29.011Z,14
2023-04-13T07:03:36.373Z,14
2023-04-13T07:04:42.933Z,13
2023-04-13T07:05:49.694Z,12
2023-04-13T07:06:56.513Z,13
2023-04-13T07:08:03.350Z,13
2023-04-13T07:09:10.206Z,12
2023-04-13T07:10:17.150Z,11
2023-04-13T07:11:25.286Z,12
2023-04-13T07:12:32.083Z,10
2023-04-13T07:13:38.835Z,10
2023-04-13T07:14:45.645Z,12
2023-04-13T07:15:52.548Z,11
2023-04-13T07:16:59.294Z,12
2023-04-13T07:18:06.221Z,8
2023-04-13T07:19:12.941Z,8
2023-04-13T07:20:19.757Z,9
2023-04-13T07:21:27.261Z,9
2023-04-13T07:22:34.402Z,9
2023-04-13T07:23:41.215Z,8
2023-04-13T07:24:47.988Z,8
2023-04-13T07:25:54.851Z,8
2023-04-13T07:27:01.727Z,8
2023-04-13T07:28:09.555Z,8
2023-04-13T07:29:16.327Z,8
2023-04-13T07:30:23.132Z,9
2023-04-13T07:31:29.969Z,8
2023-04-13T07:32:36.919Z,8
2023-04-13T07:33:43.847Z,8
2023-04-13T07:34:50.771Z,8
2023-04-13T07:35:57.648Z,7
2023-04-13T07:37:04.710Z,7
2023-04-13T07:38:11.759Z,7
2023-04-13T07:39:18.596Z,7
2023-04-13T07:40:25.517Z,7
2023-04-13T07:41:32.873Z,7
2023-04-13T07:42:39.692Z,7
2023-04-13T07:43:46.836Z,6
2023-04-13T07:44:53.781Z,6
2023-04-13T07:46:00.929Z,6
2023-04-13T07:47:14.025Z,7
2023-04-13T07:48:21.641Z,5
2023-04-13T07:49:28.502Z,6
2023-04-13T07:50:35.320Z,5
2023-04-13T07:51:44.778Z,5
2023-04-13T07:52:51.621Z,5
2023-04-13T07:53:58.544Z,6
2023-04-13T07:55:05.400Z,5
2023-04-13T07:56:12.270Z,6
2023-04-13T07:57:19.213Z,7
2023-04-13T07:58:26.056Z,6
2023-04-13T07:59:33.086Z,5
2023-04-13T08:00:39.927Z,7
2023-04-13T08:01:46.800Z,6
2023-04-13T08:02:53.700Z,6
2023-04-13T08:04:00.532Z,5
2023-04-13T08:05:07.548Z,5
2023-04-13T08:06:14.423Z,5
2023-04-13T08:07:21.263Z,5
2023-04-13T08:08:28.094Z,6
2023-04-13T08:09:35.037Z,8
2023-04-13T08:10:42.039Z,7
2023-04-13T08:11:48.888Z,6
2023-04-13T08:12:55.763Z,6
2023-04-13T08:14:03.489Z,6
2023-04-13T08:15:10.233Z,5
2023-04-13T08:16:17.202Z,5
2023-04-13T08:17:23.966Z,5
2023-04-13T08:18:30.730Z,5
2023-04-13T08:19:37.574Z,5
2023-04-13T08:20:44.395Z,5
2023-04-13T08:21:51.472Z,8
2023-04-13T08:22:58.325Z,8
2023-04-13T08:24:06.136Z,7
2023-04-13T08:25:12.948Z,8
2023-04-13T08:26:19.913Z,8
2023-04-13T08:27:26.786Z,7
2023-04-13T08:28:33.657Z,7
2023-04-13T08:29:40.493Z,7
2023-04-13T08:30:47.329Z,7
2023-04-13T08:31:54.299Z,7
2023-04-13T08:33:02.161Z,7
2023-04-13T08:34:09.016Z,7
2023-04-13T08:35:15.836Z,5
2023-04-13T08:36:22.713Z,5
2023-04-13T08:37:29.548Z,6
2023-04-13T08:38:36.866Z,6
2023-04-13T08:39:43.348Z,6
2023-04-13T08:40:50.462Z,6
2023-04-13T08:41:57.083Z,5
2023-04-13T08:43:03.909Z,5
2023-04-13T08:44:10.809Z,5
2023-04-13T08:45:17.646Z,5
2023-04-13T08:46:24.528Z,5
2023-04-13T08:47:31.464Z,5
2023-04-13T08:48:50.322Z,5
2023-04-13T08:49:45.152Z,4
2023-04-13T08:50:51.968Z,5
2023-04-13T08:51:58.901Z,5
2023-04-13T08:53:05.776Z,5
2023-04-13T08:54:12.688Z,5
2023-04-13T08:55:19.459Z,4
2023-04-13T08:56:34.387Z,5
2023-04-13T08:57:33.192Z,5
2023-04-13T08:58:40.183Z,5
2023-04-13T08:59:47.062Z,5
2023-04-13T09:00:53.882Z,5
2023-04-13T09:02:00.851Z,4
2023-04-13T09:03:09.670Z,4
2023-04-13T09:04:15.384Z,4
2023-04-13T09:05:22.229Z,4
2023-04-13T09:06:28.922Z,4
2023-04-13T09:07:35.903Z,4
2023-04-13T09:08:42.763Z,5
2023-04-13T09:09:49.680Z,5
2023-04-13T09:10:59.318Z,5
2023-04-13T09:12:06.170Z,5
2023-04-13T09:13:13.029Z,5
2023-04-13T09:14:19.887Z,5
2023-04-13T09:15:26.738Z,5
2023-04-13T09:16:33.562Z,5
2023-04-13T09:17:43.577Z,5
2023-04-13T09:18:50.341Z,5
2023-04-13T09:19:57.142Z,5
2023-04-13T09:21:14.239Z,5
2023-04-13T09:22:21.908Z,5
2023-04-13T09:23:28.786Z,4
2023-04-13T09:24:35.704Z,5
2023-04-13T09:25:42.498Z,4
2023-04-13T09:26:49.373Z,5
2023-04-13T09:27:56.175Z,4
2023-04-13T09:29:03.029Z,4
2023-04-13T09:30:09.847Z,5
2023-04-13T09:31:16.899Z,5
2023-04-13T09:32:23.663Z,5
2023-04-13T09:33:30.441Z,5
2023-04-13T09:34:37.265Z,5
2023-04-13T09:35:44.218Z,5
2023-04-13T09:36:54.462Z,4
2023-04-13T09:37:57.909Z,5
2023-04-13T09:39:04.727Z,4
2023-04-13T09:40:11.612Z,4
2023-04-13T09:41:18.816Z,4
2023-04-13T09:42:30.969Z,3
2023-04-13T09:43:37.951Z,4
2023-04-13T09:44:44.818Z,3
2023-04-13T09:45:59.720Z,4
2023-04-13T09:47:06.564Z,4
2023-04-13T09:48:13.324Z,4
2023-04-13T09:49:20.092Z,4
2023-04-13T09:50:26.956Z,4
2023-04-13T09:51:33.804Z,4
2023-04-13T09:52:43.686Z,5
2023-04-13T09:53:50.479Z,4
2023-04-13T09:54:57.280Z,5
2023-04-13T09:56:04.206Z,4
2023-04-13T09:57:10.986Z,4
2023-04-13T09:58:17.949Z,4
2023-04-13T09:59:24.899Z,4
2023-04-13T10:00:31.703Z,4
2023-04-13T10:01:38.692Z,4
2023-04-13T10:02:45.750Z,4
2023-04-13T10:03:52.262Z,3
2023-04-13T10:04:59.110Z,3
2023-04-13T10:06:05.934Z,3
2023-04-13T10:07:12.759Z,3
2023-04-13T10:08:24.446Z,4
2023-04-13T10:09:26.550Z,3
2023-04-13T10:10:33.335Z,4
2023-04-13T10:11:40.130Z,3
2023-04-13T10:12:49.410Z,3
2023-04-13T10:13:59.314Z,3
2023-04-13T10:15:06.791Z,3
2023-04-13T10:16:24.073Z,4
2023-04-13T10:17:41.197Z,4
2023-04-13T10:18:53.558Z,5
2023-04-13T10:20:00.369Z,5
2023-04-13T10:21:12.920Z,5
2023-04-13T10:22:19.802Z,5
2023-04-13T10:23:27.966Z,5
2023-04-13T10:24:37.543Z,6
2023-04-13T10:25:44.511Z,4
2023-04-13T10:26:54.006Z,4
2023-04-13T10:28:00.924Z,4
2023-04-13T10:29:07.784Z,4
2023-04-13T10:30:14.663Z,4
2023-04-13T10:31:21.534Z,4
2023-04-13T10:32:38.677Z,4
2023-04-13T10:33:45.485Z,4
2023-04-13T10:34:54.414Z,5
2023-04-13T10:36:01.231Z,4
2023-04-13T10:37:08.347Z,4
2023-04-13T10:38:20.285Z,4
2023-04-13T10:39:27.130Z,4
2023-04-13T10:40:33.960Z,4
2023-04-13T10:41:46.137Z,4
2023-04-13T10:43:00.889Z,4
2023-04-13T10:44:07.867Z,5
2023-04-13T10:45:14.764Z,4
2023-04-13T10:46:29.463Z,4
2023-04-13T10:47:36.317Z,4
2023-04-13T10:48:43.211Z,4
2023-04-13T10:49:50.003Z,4
2023-04-13T10:50:56.847Z,4
2023-04-13T10:52:03.640Z,4
2023-04-13T10:53:10.503Z,4
2023-04-13T10:54:17.401Z,4
2023-04-13T10:55:24.299Z,4
2023-04-13T10:56:31.116Z,4
2023-04-13T10:57:37.943Z,3
2023-04-13T10:58:44.806Z,4
2023-04-13T10:59:57.727Z,4
2023-04-13T11:01:01.413Z,4
2023-04-13T11:02:08.210Z,4
2023-04-13T11:03:15.891Z,4
2023-04-13T11:04:22.029Z,4
2023-04-13T11:05:28.797Z,4
2023-04-13T11:06:35.607Z,4
2023-04-13T11:07:42.465Z,4
2023-04-13T11:08:49.429Z,5
2023-04-13T11:11:03.174Z,5
2023-04-13T11:12:10.077Z,5
2023-04-13T11:13:22.228Z,5
2023-04-13T11:14:29.129Z,5
2023-04-13T11:15:36.866Z,5
2023-04-13T11:16:43.780Z,5
2023-04-13T11:17:50.481Z,6
2023-04-13T11:18:57.624Z,6
2023-04-13T11:20:04.456Z,5
2023-04-13T11:21:11.508Z,5
2023-04-13T11:22:18.329Z,5
2023-04-13T11:23:27.894Z,5
2023-04-13T11:24:34.809Z,6
2023-04-13T11:25:42.614Z,5
2023-04-13T11:26:57.705Z,5
2023-04-13T11:28:04.501Z,6
2023-04-13T11:29:12.202Z,5
2023-04-13T11:30:22.864Z,6
2023-04-13T11:31:29.817Z,6
2023-04-13T11:32:42.506Z,6
2023-04-13T11:33:49.344Z,6
2023-04-13T11:34:56.187Z,6
2023-04-13T11:36:11.365Z,6
2023-04-13T11:37:18.361Z,6
2023-04-13T11:38:25.300Z,6
2023-04-13T11:39:32.111Z,6
2023-04-13T11:40:39.068Z,6
2023-04-13T11:41:45.882Z,6
2023-04-13T11:42:52.677Z,6
2023-04-13T11:43:59.660Z,6
2023-04-13T11:45:06.587Z,6
2023-04-13T11:46:17.069Z,6
2023-04-13T11:47:27.357Z,6
2023-04-13T11:48:34.139Z,6
2023-04-13T11:49:41.012Z,6
2023-04-13T11:50:47.847Z,6
2023-04-13T11:51:54.722Z,6
2023-04-13T11:53:01.838Z,7
2023-04-13T11:54:08.567Z,6
2023-04-13T11:55:22.988Z,6
2023-04-13T11:56:23.344Z,6
2023-04-13T11:57:31.080Z,7
2023-04-13T11:58:38.102Z,6
2023-04-13T11:59:45.029Z,8
2023-04-13T12:00:51.932Z,7
2023-04-13T12:02:03.094Z,7
2023-04-13T12:04:16.547Z,7
2023-04-13T12:05:23.238Z,6
2023-04-13T12:06:33.093Z,6
2023-04-13T12:07:39.939Z,7
2023-04-13T12:08:53.187Z,7
2023-04-13T12:09:58.447Z,6
2023-04-13T12:12:46.077Z,6
2023-04-13T12:13:33.478Z,7
2023-04-13T12:15:43.870Z,6
2023-04-13T12:17:57.209Z,7
2023-04-13T12:18:59.613Z,6
2023-04-13T12:20:10.115Z,6
2023-04-13T12:21:17.084Z,7
2023-04-13T12:22:23.878Z,7
2023-04-13T12:23:41.021Z,6
2023-04-13T12:24:56.852Z,7
2023-04-13T12:26:18.718Z,6
2023-04-13T12:27:16.804Z,5
2023-04-13T12:28:16.577Z,6
2023-04-13T12:29:23.457Z,6
2023-04-13T12:30:30.243Z,6
2023-04-13T12:31:37.136Z,6
2023-04-13T12:32:43.960Z,6
2023-04-13T12:33:53.516Z,6
2023-04-13T12:35:00.303Z,6
2023-04-13T12:36:07.290Z,5
2023-04-13T12:37:15.957Z,6
2023-04-13T12:38:22.712Z,6
2023-04-13T12:39:31.004Z,6
2023-04-13T12:40:37.820Z,6
2023-04-13T12:41:44.686Z,6
2023-04-13T12:42:51.543Z,6
2023-04-13T12:43:58.412Z,6
2023-04-13T12:45:07.886Z,7
2023-04-13T12:46:14.890Z,6
2023-04-13T12:47:21.967Z,7
2023-04-13T12:48:28.693Z,6
2023-04-13T12:49:35.698Z,6
2023-04-13T12:50:43.366Z,6
2023-04-13T12:51:50.262Z,6
2023-04-13T12:52:57.160Z,6
2023-04-13T12:54:04.119Z,5
2023-04-13T12:55:12.387Z,5
2023-04-13T12:56:19.247Z,7
2023-04-13T12:57:26.326Z,5
2023-04-13T12:58:34.850Z,5
2023-04-13T12:59:41.761Z,5
2023-04-13T13:00:48.746Z,5
2023-04-13T13:01:55.564Z,6
2023-04-13T13:03:13.334Z,5
2023-04-13T13:04:11.409Z,6
2023-04-13T13:05:18.192Z,5
2023-04-13T13:06:25.130Z,6
2023-04-13T13:07:31.992Z,6
2023-04-13T13:08:40.320Z,6
2023-04-13T13:09:45.636Z,5
2023-04-13T13:10:52.473Z,5
2023-04-13T13:11:59.294Z,5
2023-04-13T13:13:06.195Z,5
2023-04-13T13:14:13.020Z,5
2023-04-13T13:15:20.700Z,5
2023-04-13T13:16:27.617Z,5
2023-04-13T13:17:35.034Z,5
2023-04-13T13:18:50.754Z,6
2023-04-13T13:19:51.278Z,6
2023-04-13T13:20:58.181Z,5
2023-04-13T13:22:05.086Z,5
2023-04-13T13:23:11.982Z,6
2023-04-13T13:24:18.825Z,5
2023-04-13T13:25:25.834Z,4
2023-04-13T13:26:53.117Z,4
2023-04-13T13:28:10.027Z,4
2023-04-13T13:28:49.342Z,3
2023-04-13T13:29:56.233Z,3
2023-04-13T13:31:03.074Z,4
2023-04-13T13:32:10.195Z,4
2023-04-13T13:33:17.188Z,4
2023-04-13T13:34:23.956Z,3
2023-04-13T13:35:30.863Z,4
2023-04-13T13:36:37.757Z,3
2023-04-13T13:37:44.757Z,4
2023-04-13T13:38:51.662Z,3
2023-04-13T13:39:58.556Z,3
2023-04-13T13:41:05.323Z,3
2023-04-13T13:42:12.120Z,3
2023-04-13T13:43:19.060Z,3
2023-04-13T13:44:25.913Z,3
2023-04-13T13:45:32.790Z,4
2023-04-13T13:46:39.722Z,3
2023-04-13T13:47:46.510Z,3
2023-04-13T13:48:53.397Z,4
2023-04-13T13:50:00.215Z,4
2023-04-13T13:51:07.894Z,4
2023-04-13T13:52:14.108Z,4
2023-04-13T13:53:20.913Z,4
2023-04-13T13:54:27.800Z,3
2023-04-13T13:55:34.832Z,3
2023-04-13T13:56:42.643Z,4
2023-04-13T13:57:49.475Z,4
2023-04-13T13:58:56.300Z,3
2023-04-13T14:00:03.218Z,3
2023-04-13T14:01:15.671Z,3
2023-04-13T14:02:23.773Z,3
2023-04-13T14:03:33.715Z,3
2023-04-13T14:04:40.738Z,4
2023-04-13T14:05:47.673Z,5
2023-04-13T14:06:54.515Z,5
2023-04-13T14:08:01.325Z,7
2023-04-13T14:09:08.354Z,13
2023-04-13T14:10:15.305Z,16
2023-04-13T14:11:22.225Z,35
2023-04-13T14:12:29.135Z,16
2023-04-13T14:13:36.025Z,42
2023-04-13T14:14:42.911Z,28
2023-04-13T14:15:49.805Z,42
2023-04-13T14:16:57.434Z,55
2023-04-13T14:18:10.245Z,55
2023-04-13T14:19:11.254Z,55
2023-04-13T14:20:18.096Z,43
2023-04-13T14:21:25.037Z,51
2023-04-13T14:22:31.961Z,46
2023-04-13T14:23:41.542Z,66
2023-04-13T14:24:48.430Z,83
2023-04-13T14:25:55.292Z,43
2023-04-13T14:27:02.195Z,19
2023-04-13T14:28:09.256Z,38
2023-04-13T14:29:16.042Z,61
2023-04-13T14:30:23.691Z,22
2023-04-13T14:31:33.945Z,16
2023-04-13T14:32:43.492Z,20
2023-04-13T14:33:52.612Z,23
2023-04-13T14:34:59.499Z,17
2023-04-13T14:36:06.736Z,20
2023-04-13T14:37:13.675Z,15
2023-04-13T14:38:22.855Z,17
2023-04-13T14:39:29.788Z,12
2023-04-13T14:40:36.622Z,10
2023-04-13T14:41:43.488Z,12
2023-04-13T14:42:50.302Z,12
2023-04-13T14:43:57.080Z,13
2023-04-13T14:45:05.156Z,7
2023-04-13T14:46:12.385Z,7
2023-04-13T14:47:19.405Z,7
2023-04-13T14:48:28.364Z,7
2023-04-13T14:49:35.272Z,8
2023-04-13T14:50:42.166Z,10
2023-04-13T14:51:52.339Z,8
2023-04-13T14:52:59.338Z,9
2023-04-13T14:54:11.410Z,7
2023-04-13T14:55:20.614Z,7
2023-04-13T14:56:28.805Z,8
2023-04-13T14:57:35.714Z,7
2023-04-13T14:58:42.750Z,6
2023-04-13T14:59:49.660Z,6
2023-04-13T15:00:56.622Z,5
2023-04-13T15:02:03.930Z,7
2023-04-13T15:03:14.390Z,6
2023-04-13T15:04:21.658Z,7
2023-04-13T15:05:28.418Z,7
2023-04-13T15:06:43.600Z,6
2023-04-13T15:07:50.662Z,6
2023-04-13T15:08:57.707Z,6
2023-04-13T15:10:04.606Z,7
2023-04-13T15:11:14.245Z,7
2023-04-13T15:12:21.164Z,6
2023-04-13T15:13:30.367Z,6
2023-04-13T15:14:37.315Z,6
2023-04-13T15:15:44.319Z,7
2023-04-13T15:16:53.361Z,6
2023-04-13T15:18:02.529Z,6
2023-04-13T15:19:07.462Z,5
2023-04-13T15:20:14.351Z,5
2023-04-13T15:21:22.675Z,7
2023-04-13T15:22:29.707Z,6
2023-04-13T15:23:39.674Z,5
2023-04-13T15:24:46.599Z,5
2023-04-13T15:25:53.571Z,6
2023-04-13T15:27:03.976Z,5
2023-04-13T15:28:10.846Z,5
2023-04-13T15:29:17.836Z,5
2023-04-13T15:30:24.848Z,6
2023-04-13T15:31:31.918Z,6
2023-04-13T15:32:39.928Z,6
2023-04-13T15:33:46.801Z,6
2023-04-13T15:34:53.696Z,7
2023-04-13T15:36:00.508Z,6
2023-04-13T15:37:07.507Z,7
2023-04-13T15:38:14.479Z,7
2023-04-13T15:39:21.616Z,6
2023-04-13T15:40:33.075Z,6
2023-04-13T15:41:39.952Z,6
2023-04-13T15:42:46.972Z,6
2023-04-13T15:43:54.569Z,6
2023-04-13T15:45:01.473Z,6
2023-04-13T15:46:08.995Z,6
2023-04-13T15:47:20.372Z,6
2023-04-13T15:48:27.372Z,6
2023-04-13T15:49:34.343Z,6
2023-04-13T15:50:41.288Z,6
2023-04-13T15:51:48.259Z,7
2023-04-13T15:52:57.896Z,7
2023-04-13T15:54:04.859Z,7
2023-04-13T15:55:11.848Z,8
2023-04-13T15:56:18.660Z,7
2023-04-13T15:57:25.696Z,9
2023-04-13T15:58:32.572Z,8
2023-04-13T15:59:39.353Z,8
2023-04-13T16:00:46.217Z,8
2023-04-13T16:02:03.614Z,7
2023-04-13T16:03:10.417Z,8
2023-04-13T16:04:18.458Z,9
2023-04-13T16:05:25.274Z,8
2023-04-13T16:06:32.208Z,6
2023-04-13T16:07:39.307Z,7
2023-04-13T16:08:46.194Z,8
2023-04-13T16:09:54.976Z,9
2023-04-13T16:11:01.833Z,6
2023-04-13T16:12:08.707Z,5
2023-04-13T16:13:15.643Z,5
2023-04-13T16:14:22.495Z,5
2023-04-13T16:15:29.389Z,6
2023-04-13T16:16:37.153Z,6
2023-04-13T16:17:48.485Z,7
2023-04-13T16:18:55.284Z,6
2023-04-13T16:20:02.293Z,8
2023-04-13T16:21:13.639Z,9
2023-04-13T16:22:20.761Z,7
2023-04-13T16:23:27.508Z,8
2023-04-13T16:24:34.397Z,6
2023-04-13T16:25:41.256Z,8